Time;durP1;ratioP1;P1;durP2;ratioP2;P2;SDS_P1;SDS_P2;PMS_P1;PMS_P2;Temp;Humidity;BMP_temperature;BMP_pressure;BME280_temperature;BME280_humidity;BME280_pressure;Samples;Min_cycle;Max_cycle;Signal;HPM_P1;HPM_P2
2022/05/18 00:00:44;;;;;;;7.45;5.72;;;;;;;13.03;100.00;99262.47;4996601;28;20026;-59
2022/05/18 00:03:10;;;;;;;8.68;6.20;;;;;;;13.04;100.00;99264.19;4997776;28;20137;-58
2022/05/18 00:05:38;;;;;;;6.70;5.90;;;;;;;12.99;100.00;99260.84;4999837;28;20030;-56
2022/05/18 00:08:05;;;;;;;12.63;7.22;;;;;;;13.02;100.00;99273.69;4999732;28;20041;-59
2022/05/18 00:10:31;;;;;;;9.00;8.10;;;;;;;12.86;100.00;99269.69;4984869;28;20348;-59
2022/05/18 00:12:57;;;;;;;8.10;6.75;;;;;;;12.93;100.00;99268.69;5000542;28;20029;-59
2022/05/18 00:15:24;;;;;;;7.22;5.85;;;;;;;12.94;100.00;99270.41;5002114;28;20041;-59
2022/05/18 00:17:50;;;;;;;10.50;6.45;;;;;;;12.82;100.00;99282.59;5001372;28;20050;-58
2022/05/18 00:20:15;;;;;;;8.00;6.45;;;;;;;12.76;100.00;99275.00;5001274;28;20538;-58
2022/05/18 00:22:53;;;;;;;8.55;7.63;;;;;;;12.75;100.00;99280.16;5000075;28;20117;-58
2022/05/18 00:25:22;;;;;;;11.63;6.68;;;;;;;12.77;100.00;99279.25;4999608;28;20038;-59
2022/05/18 00:27:48;;;;;;;9.05;5.97;;;;;;;12.71;100.00;99279.38;5001712;28;20055;-58
2022/05/18 00:30:16;;;;;;;8.55;7.53;;;;;;;12.67;100.00;99282.88;5001399;28;20638;-57
2022/05/18 00:32:42;;;;;;;8.23;6.70;;;;;;;12.67;100.00;99290.59;5000768;28;20409;-58
2022/05/18 00:35:08;;;;;;;10.73;6.95;;;;;;;12.60;100.00;99286.41;5000727;28;20484;-56
2022/05/18 00:37:34;;;;;;;8.00;6.32;;;;;;;12.58;100.00;99295.03;5002247;28;20037;-59
2022/05/18 00:39:59;;;;;;;10.48;6.97;;;;;;;12.56;100.00;99289.91;5000018;28;20384;-58
2022/05/18 00:42:27;;;;;;;12.52;7.13;;;;;;;12.50;100.00;99295.16;5000312;28;20389;-58
2022/05/18 00:44:53;;;;;;;6.82;6.07;;;;;;;12.40;100.00;99292.75;5002010;28;20709;-58
2022/05/18 00:47:20;;;;;;;7.35;6.32;;;;;;;12.30;100.00;99299.78;5001914;28;20065;-59
2022/05/18 00:49:50;;;;;;;7.38;6.68;;;;;;;12.22;100.00;99302.44;5001588;28;20048;-58
2022/05/18 00:52:24;;;;;;;7.95;6.15;;;;;;;12.21;100.00;99312.75;4999026;28;20094;-59
2022/05/18 00:54:52;;;;;;;7.63;6.05;;;;;;;12.18;100.00;99308.50;5001023;28;20034;-56
2022/05/18 00:57:28;;;;;;;7.82;6.78;;;;;;;12.19;100.00;99320.47;5000287;28;20120;-58
2022/05/18 01:00:11;;;;;;;10.25;6.50;;;;;;;12.05;100.00;99312.09;5000416;28;20073;-57
2022/05/18 01:02:40;;;;;;;9.82;7.00;;;;;;;12.07;100.00;99318.09;4999251;28;20119;-58
2022/05/18 01:05:08;;;;;;;6.82;6.07;;;;;;;12.03;100.00;99324.16;4998834;28;20034;-57
2022/05/18 01:07:39;;;;;;;9.45;6.30;;;;;;;11.89;100.00;99315.75;4999437;28;20499;-58
2022/05/18 01:10:06;;;;;;;9.75;6.10;;;;;;;11.92;100.00;99328.59;4999099;28;20049;-56
2022/05/18 01:12:32;;;;;;;8.18;6.38;;;;;;;11.77;100.00;99326.19;5002752;28;20862;-59
2022/05/18 01:15:02;;;;;;;9.27;6.82;;;;;;;11.77;100.00;99327.06;5001516;28;20074;-57
2022/05/18 01:17:34;;;;;;;8.00;6.50;;;;;;;11.74;100.00;99333.97;5001735;28;20305;-59
2022/05/18 01:20:03;;;;;;;7.47;6.30;;;;;;;11.59;100.00;99336.66;4999421;28;20041;-59
2022/05/18 01:22:47;;;;;;;13.52;8.13;;;;;;;11.65;100.00;99327.19;5002427;28;20029;-56
2022/05/18 01:25:18;;;;;;;8.13;6.90;;;;;;;11.57;100.00;99336.69;5000921;28;20298;-59
2022/05/18 01:27:44;;;;;;;8.85;7.50;;;;;;;11.50;100.00;99336.78;5000224;28;20037;-59
2022/05/18 01:30:11;;;;;;;7.15;6.45;;;;;;;11.54;100.00;99328.19;4999909;28;20038;-58
2022/05/18 01:32:41;;;;;;;6.90;6.28;;;;;;;11.45;100.00;99324.84;5000098;28;20125;-59
2022/05/18 01:35:09;;;;;;;7.82;7.10;;;;;;;11.44;100.00;99333.41;4999407;28;20435;-59
2022/05/18 01:37:34;;;;;;;9.48;7.30;;;;;;;11.39;100.00;99335.19;4999693;28;20037;-58
2022/05/18 01:40:03;;;;;;;10.05;7.50;;;;;;;11.45;100.00;99336.84;5000857;28;20081;-58
2022/05/18 01:42:47;;;;;;;7.63;6.93;;;;;;;11.51;100.00;99336.75;4999921;28;20038;-57
2022/05/18 01:45:13;;;;;;;9.43;8.02;;;;;;;11.37;100.00;99330.94;4998658;28;20076;-59
2022/05/18 01:47:40;;;;;;;8.05;7.10;;;;;;;11.37;100.00;99331.75;4999383;28;20515;-59
2022/05/18 01:50:09;;;;;;;10.90;7.00;;;;;;;11.31;100.00;99333.56;5000248;28;20042;-59
2022/05/18 01:52:35;;;;;;;12.65;7.65;;;;;;;11.26;100.00;99336.19;4998062;28;20083;-59
2022/05/18 01:55:01;;;;;;;9.18;7.45;;;;;;;11.21;100.00;99339.66;4997895;28;20447;-59
2022/05/18 01:57:26;;;;;;;9.50;7.07;;;;;;;11.17;100.00;99349.09;4999240;28;20513;-58
2022/05/18 01:59:51;;;;;;;8.93;7.32;;;;;;;11.10;100.00;99338.91;5000232;28;20026;-58
2022/05/18 02:02:17;;;;;;;11.70;7.70;;;;;;;11.09;100.00;99345.75;4985458;28;20057;-59
2022/05/18 02:04:43;;;;;;;8.32;7.47;;;;;;;11.01;100.00;99347.56;4997101;28;20530;-59
2022/05/18 02:07:09;;;;;;;8.80;6.85;;;;;;;11.04;100.00;99350.06;4998825;28;20117;-59
2022/05/18 02:09:35;;;;;;;8.30;7.28;;;;;;;10.94;100.00;99343.34;5000825;28;20116;-59
2022/05/18 02:12:01;;;;;;;12.40;7.30;;;;;;;10.95;100.00;99340.75;4999715;28;20045;-58
2022/05/18 02:14:26;;;;;;;9.18;6.93;;;;;;;11.03;100.00;99350.13;4999952;28;20034;-59
2022/05/18 02:16:52;;;;;;;11.63;7.45;;;;;;;10.93;100.00;99352.75;5000566;28;20519;-58
2022/05/18 02:19:17;;;;;;;10.10;7.93;;;;;;;10.95;100.00;99357.84;5001306;28;20064;-59
2022/05/18 02:21:43;;;;;;;9.88;7.53;;;;;;;10.93;100.00;99357.88;4997997;28;20069;-60
2022/05/18 02:24:08;;;;;;;14.50;8.45;;;;;;;10.88;100.00;99357.06;4984100;28;20042;-57
2022/05/18 02:26:36;;;;;;;10.05;7.40;;;;;;;10.84;100.00;99355.41;4999613;28;20421;-56
2022/05/18 02:29:02;;;;;;;8.80;7.32;;;;;;;10.85;100.00;99362.25;4998582;28;20037;-54
2022/05/18 02:31:28;;;;;;;10.35;8.40;;;;;;;10.79;100.00;99366.53;4996771;28;20127;-55
2022/05/18 02:33:53;;;;;;;7.57;6.82;;;;;;;10.74;100.00;99369.16;4997998;28;20480;-57
2022/05/18 02:36:19;;;;;;;7.90;7.10;;;;;;;10.68;100.00;99366.66;5000293;28;20040;-57
2022/05/18 02:38:44;;;;;;;9.10;7.78;;;;;;;10.69;100.00;99373.50;4999925;28;20065;-58
2022/05/18 02:41:11;;;;;;;10.07;8.25;;;;;;;10.85;100.00;99375.06;4995470;28;20067;-57
2022/05/18 02:43:40;;;;;;;10.65;8.35;;;;;;;11.01;100.00;99383.47;4996260;28;20632;-55
2022/05/18 02:46:18;;;;;;;7.95;7.05;;;;;;;11.08;100.00;99382.53;4997797;28;20034;-58
2022/05/18 02:48:45;;;;;;;10.68;7.15;;;;;;;11.11;100.00;99386.81;4998657;28;20049;-54
2022/05/18 02:51:12;;;;;;;13.27;7.65;;;;;;;11.15;100.00;99391.06;4997298;28;20484;-55
2022/05/18 02:53:38;;;;;;;13.75;8.05;;;;;;;11.25;100.00;99392.66;4996555;28;20030;-55
2022/05/18 02:56:06;;;;;;;11.60;7.63;;;;;;;11.21;100.00;99390.97;4996368;28;20045;-57
2022/05/18 02:58:36;;;;;;;9.77;7.18;;;;;;;11.24;100.00;99386.69;4998839;28;20072;-57
2022/05/18 03:01:07;;;;;;;10.57;7.35;;;;;;;11.31;100.00;99400.31;4997769;28;20138;-54
2022/05/18 03:03:33;;;;;;;10.50;7.20;;;;;;;11.34;100.00;99395.13;5000623;28;20125;-60
2022/05/18 03:05:59;;;;;;;7.97;7.18;;;;;;;11.31;100.00;99400.31;4999328;28;20048;-61
2022/05/18 03:08:25;;;;;;;9.68;8.07;;;;;;;11.38;100.00;99407.06;4996945;28;20030;-60
2022/05/18 03:10:51;;;;;;;9.48;7.00;;;;;;;11.34;100.00;99403.69;4999049;28;20038;-61
2022/05/18 03:13:16;;;;;;;7.75;6.85;;;;;;;11.37;100.00;99407.97;4999538;28;20625;-60
2022/05/18 03:15:42;;;;;;;11.68;7.57;;;;;;;11.37;100.00;99406.22;4999017;28;20088;-60
2022/05/18 03:18:07;;;;;;;10.32;9.32;;;;;;;11.43;100.00;99410.44;4997252;28;20073;-59
2022/05/18 03:23:35;;;;;;;8.13;6.53;;;;;;;11.44;100.00;99415.59;5001700;28;20113;-62
2022/05/18 03:26:11;;;;;;;10.25;7.47;;;;;;;11.42;100.00;99424.16;5000158;28;20507;-61
2022/05/18 03:28:38;;;;;;;8.52;7.65;;;;;;;11.34;100.00;99428.50;4996998;28;20092;-61
2022/05/18 03:31:05;;;;;;;8.80;6.80;;;;;;;11.36;100.00;99435.34;4999753;28;20059;-61
2022/05/18 03:33:30;;;;;;;7.85;6.70;;;;;;;11.39;100.00;99435.31;4997910;28;20027;-61
2022/05/18 03:35:56;;;;;;;8.98;6.70;;;;;;;11.38;100.00;99436.16;4998253;28;20482;-62
2022/05/18 03:38:22;;;;;;;7.18;6.43;;;;;;;11.42;100.00;99440.41;4998091;28;20434;-61
2022/05/18 03:40:48;;;;;;;7.65;6.93;;;;;;;11.37;100.00;99444.72;4998398;28;20042;-61
2022/05/18 03:43:14;;;;;;;7.40;6.55;;;;;;;11.33;100.00;99445.63;4997879;28;20392;-61
2022/05/18 03:45:40;;;;;;;9.20;6.05;;;;;;;11.26;100.00;99451.69;5001491;28;20045;-62
2022/05/18 03:48:06;;;;;;;8.35;7.15;;;;;;;11.27;100.00;99447.41;4984638;28;20498;-62
2022/05/18 03:50:32;;;;;;;11.13;6.75;;;;;;;11.35;100.00;99455.88;5002785;28;20038;-60
2022/05/18 03:52:58;;;;;;;7.03;6.10;;;;;;;11.39;100.00;99465.25;5000111;28;20037;-61
2022/05/18 03:55:26;;;;;;;7.85;6.93;;;;;;;11.46;100.00;99461.75;5001472;28;20037;-61
2022/05/18 03:57:52;;;;;;;8.15;7.35;;;;;;;11.51;100.00;99460.00;5002116;28;20033;-60
2022/05/18 04:00:17;;;;;;;7.07;6.38;;;;;;;11.66;100.00;99466.72;5000499;28;20044;-60
2022/05/18 04:02:44;;;;;;;7.65;6.93;;;;;;;11.77;100.00;99468.34;5000774;28;20034;-60
2022/05/18 04:05:10;;;;;;;7.13;6.35;;;;;;;11.88;100.00;99463.94;4999950;28;20128;-60
2022/05/18 04:07:36;;;;;;;8.70;7.32;;;;;;;12.01;100.00;99474.09;5001274;28;20040;-59
2022/05/18 04:10:03;;;;;;;8.27;6.68;;;;;;;12.18;100.00;99472.16;4999649;28;20385;-61
2022/05/18 04:12:28;;;;;;;8.70;7.47;;;;;;;12.30;100.00;99482.31;4999452;28;20056;-60
2022/05/18 04:14:54;;;;;;;13.75;9.25;;;;;;;12.45;100.00;99473.53;4999617;28;20034;-60
2022/05/18 04:17:25;;;;;;;10.63;7.85;;;;;;;12.62;100.00;99482.75;5000098;28;20049;-61
2022/05/18 04:19:50;;;;;;;8.95;6.72;;;;;;;12.78;100.00;99478.22;5000819;28;20109;-59
2022/05/18 04:22:16;;;;;;;6.97;6.28;;;;;;;12.89;100.00;99478.94;5000606;28;20042;-60
2022/05/18 04:24:41;;;;;;;7.50;6.40;;;;;;;12.94;100.00;99487.44;5000395;28;20396;-60
2022/05/18 04:27:07;;;;;;;9.68;6.22;;;;;;;13.03;100.00;99486.44;5001176;28;20038;-61
2022/05/18 04:29:33;;;;;;;7.78;6.60;;;;;;;13.10;100.00;99499.25;5002027;28;20105;-61
2022/05/18 04:31:58;;;;;;;7.60;6.45;;;;;;;13.21;100.00;99502.50;5000241;28;20191;-61
2022/05/18 04:34:25;;;;;;;10.48;6.55;;;;;;;13.20;100.00;99505.09;5000186;28;20038;-61
2022/05/18 04:36:51;;;;;;;8.77;6.03;;;;;;;13.19;100.00;99499.13;5000013;28;20041;-60
2022/05/18 04:39:16;;;;;;;9.55;6.38;;;;;;;13.20;100.00;99505.09;5000537;28;20041;-61
2022/05/18 04:41:42;;;;;;;10.20;5.65;;;;;;;13.26;100.00;99505.84;5001089;28;20644;-61
2022/05/18 04:44:07;;;;;;;8.40;6.57;;;;;;;13.25;100.00;99504.16;5000022;28;20041;-59
2022/05/18 04:46:33;;;;;;;6.80;5.43;;;;;;;13.13;100.00;99508.63;5000688;28;20034;-60
2022/05/18 04:48:58;;;;;;;8.02;6.43;;;;;;;13.17;100.00;99511.16;5000586;28;20038;-61
2022/05/18 04:51:24;;;;;;;7.20;6.50;;;;;;;13.34;100.00;99513.44;5000936;28;20099;-61
2022/05/18 04:53:49;;;;;;;6.63;5.57;;;;;;;13.46;100.00;99517.53;4988983;28;20042;-61
2022/05/18 04:56:15;;;;;;;8.32;6.18;;;;;;;13.53;100.00;99522.59;4999252;28;20033;-62
2022/05/18 04:58:40;;;;;;;10.43;5.70;;;;;;;13.49;100.00;99520.09;5001041;28;20034;-58
2022/05/18 05:01:07;;;;;;;7.03;6.00;;;;;;;13.72;100.00;99528.28;4999598;28;20040;-62
2022/05/18 05:03:33;;;;;;;6.22;5.30;;;;;;;13.78;100.00;99533.34;5000035;28;20093;-62
2022/05/18 05:05:59;;;;;;;7.53;5.68;;;;;;;13.91;100.00;99533.97;4999685;28;20053;-60
2022/05/18 05:08:25;;;;;;;7.40;5.90;;;;;;;14.02;100.00;99532.03;4999987;28;20038;-61
2022/05/18 05:10:50;;;;;;;6.25;5.65;;;;;;;14.11;100.00;99544.75;4996974;28;20065;-62
2022/05/18 05:13:16;;;;;;;6.75;5.28;;;;;;;14.31;100.00;99544.38;4999042;28;20066;-60
2022/05/18 05:15:41;;;;;;;6.75;5.80;;;;;;;14.38;100.00;99548.59;4999596;28;20029;-62
2022/05/18 05:18:07;;;;;;;7.70;5.65;;;;;;;14.29;100.00;99543.56;4999219;28;20040;-61
2022/05/18 05:20:32;;;;;;;6.43;5.63;;;;;;;14.37;100.00;99555.47;5000184;28;20035;-60
2022/05/18 05:22:58;;;;;;;7.82;5.32;;;;;;;14.36;100.00;99561.50;4983465;28;20033;-58
2022/05/18 05:25:23;;;;;;;7.45;4.88;;;;;;;14.50;100.00;99574.13;5000548;28;20399;-59
2022/05/18 05:27:49;;;;;;;9.88;5.03;;;;;;;14.67;100.00;99571.22;4999855;28;20489;-59
2022/05/18 05:30:15;;;;;;;6.57;5.05;;;;;;;14.89;100.00;99567.31;4998910;28;20030;-59
2022/05/18 05:32:41;;;;;;;6.15;4.40;;;;;;;14.76;100.00;99565.88;5001259;28;20544;-59
2022/05/18 05:35:10;;;;;;;4.97;4.47;;;;;;;14.96;100.00;99569.72;4997429;28;20430;-59
2022/05/18 05:37:35;;;;;;;9.00;4.82;;;;;;;15.06;100.00;99573.78;4999252;28;20460;-57
2022/05/18 05:40:00;;;;;;;13.73;5.32;;;;;;;14.93;100.00;99563.78;4997887;28;20061;-58
2022/05/18 05:42:26;;;;;;;12.82;6.10;;;;;;;15.13;100.00;99576.25;4998649;28;20637;-60
2022/05/18 05:44:51;;;;;;;5.68;4.93;;;;;;;15.22;100.00;99571.75;5001385;28;20165;-59
2022/05/18 05:47:17;;;;;;;6.05;5.18;;;;;;;15.24;100.00;99569.09;5000436;28;20038;-61
2022/05/18 05:49:44;;;;;;;5.18;4.50;;;;;;;15.30;100.00;99575.00;4999665;28;20385;-60
2022/05/18 05:52:11;;;;;;;7.47;4.78;;;;;;;15.46;100.00;99570.31;4986099;28;20038;-60
2022/05/18 05:54:37;;;;;;;10.32;4.50;;;;;;;15.65;100.00;99586.28;5001465;28;20034;-61
2022/05/18 05:57:04;;;;;;;7.18;4.70;;;;;;;15.80;100.00;99591.91;4999456;28;20022;-59
2022/05/18 05:59:34;;;;;;;7.32;4.60;;;;;;;16.00;100.00;99592.25;4998510;28;20048;-61
2022/05/18 06:02:02;;;;;;;8.75;5.05;;;;;;;16.15;100.00;99598.78;5000674;28;20483;-61
2022/05/18 06:04:31;;;;;;;5.63;5.13;;;;;;;16.25;100.00;99597.63;4998031;28;20045;-59
2022/05/18 06:06:57;;;;;;;6.40;5.20;;;;;;;16.31;100.00;99605.25;4996340;28;20021;-60
2022/05/18 06:09:23;;;;;;;5.70;4.45;;;;;;;16.43;100.00;99612.69;5001492;28;20041;-62
2022/05/18 06:11:50;;;;;;;6.72;4.97;;;;;;;16.52;100.00;99609.00;5000384;28;20739;-61
2022/05/18 06:14:16;;;;;;;10.00;4.97;;;;;;;16.71;100.00;99612.81;4999399;28;20097;-60
2022/05/18 06:16:42;;;;;;;5.65;4.57;;;;;;;16.78;100.00;99614.34;4998226;28;20111;-60
2022/05/18 06:19:08;;;;;;;5.05;4.55;;;;;;;16.84;100.00;99621.94;4997376;28;20034;-61
2022/05/18 06:21:34;;;;;;;7.93;5.00;;;;;;;16.74;99.95;99622.22;4998463;28;20120;-59
2022/05/18 06:24:00;;;;;;;6.85;5.53;;;;;;;16.72;96.79;99618.84;5000047;28;20480;-59
2022/05/18 06:26:26;;;;;;;5.85;5.28;;;;;;;16.83;97.32;99625.41;4996886;28;20034;-59
2022/05/18 06:28:52;;;;;;;5.63;4.03;;;;;;;16.97;95.99;99619.84;4999737;28;20041;-60
2022/05/18 06:31:17;;;;;;;7.15;5.05;;;;;;;16.96;95.44;99625.91;4996750;28;20365;-59
2022/05/18 06:33:43;;;;;;;5.10;4.43;;;;;;;16.55;96.57;99633.97;4997815;28;20065;-58
2022/05/18 06:36:08;;;;;;;6.97;5.35;;;;;;;16.66;98.58;99634.53;4999081;28;20034;-60
2022/05/18 06:38:34;;;;;;;5.63;4.57;;;;;;;16.69;97.76;99634.44;4998525;28;20037;-60
2022/05/18 06:43:43;;;;;;;6.00;4.53;;;;;;;16.88;95.59;99646.00;4997368;28;20152;-60
2022/05/18 06:46:09;;;;;;;6.03;4.63;;;;;;;16.96;96.93;99644.06;4998046;28;20084;-60
2022/05/18 06:48:35;;;;;;;5.57;5.07;;;;;;;16.99;98.30;99646.53;4999115;28;20057;-60
2022/05/18 06:51:00;;;;;;;7.38;4.97;;;;;;;17.02;98.25;99654.22;4999093;28;20613;-61
2022/05/18 06:53:26;;;;;;;6.07;4.85;;;;;;;17.07;99.16;99647.16;4998047;28;20035;-61
2022/05/18 06:55:52;;;;;;;12.35;5.22;;;;;;;17.29;97.78;99645.66;4999247;28;20034;-59
2022/05/18 06:58:18;;;;;;;5.57;4.97;;;;;;;17.45;96.83;99650.38;4997807;28;20040;-60
2022/05/18 07:00:43;;;;;;;5.40;4.55;;;;;;;17.35;94.90;99650.63;4997344;28;20538;-59
2022/05/18 07:03:09;;;;;;;5.35;4.85;;;;;;;17.50;93.31;99658.84;4994393;28;20042;-60
2022/05/18 07:05:35;;;;;;;8.15;4.47;;;;;;;17.54;92.20;99655.28;4998605;28;20034;-60
2022/05/18 07:08:03;;;;;;;10.10;5.07;;;;;;;17.68;91.78;99648.81;4999116;28;20140;-60
2022/05/18 07:10:28;;;;;;;6.00;5.40;;;;;;;17.77;92.44;99656.31;4996568;28;20037;-60
2022/05/18 07:12:54;;;;;;;6.07;5.47;;;;;;;17.55;92.55;99669.94;4999098;28;20389;-60
2022/05/18 07:15:20;;;;;;;9.88;5.28;;;;;;;17.59;92.80;99669.84;4997161;28;20538;-60
2022/05/18 07:17:46;;;;;;;6.57;5.63;;;;;;;17.51;93.09;99670.94;4999408;28;20173;-61
2022/05/18 07:20:12;;;;;;;6.25;5.72;;;;;;;17.59;94.50;99671.56;5001384;28;20173;-62
2022/05/18 07:22:38;;;;;;;10.98;6.00;;;;;;;17.66;93.84;99678.25;5001471;28;20044;-61
2022/05/18 07:25:04;;;;;;;5.82;5.32;;;;;;;17.84;94.19;99674.25;5002142;28;20022;-61
2022/05/18 07:27:30;;;;;;;8.48;5.70;;;;;;;17.92;94.50;99672.25;5004572;28;20056;-60
2022/05/18 07:29:55;;;;;;;6.82;6.18;;;;;;;17.79;94.28;99683.03;5002292;28;20355;-61
2022/05/18 07:32:20;;;;;;;6.60;5.93;;;;;;;17.82;93.54;99676.06;5003613;28;20044;-61
2022/05/18 07:34:47;;;;;;;7.72;6.35;;;;;;;17.61;93.75;99670.63;5001430;28;20153;-61
2022/05/18 07:37:14;;;;;;;8.02;5.85;;;;;;;17.90;94.06;99684.44;5003587;28;20026;-61
2022/05/18 07:39:40;;;;;;;10.85;7.65;;;;;;;17.91;93.66;99684.38;5000376;28;20038;-60
2022/05/18 07:42:06;;;;;;;7.28;5.50;;;;;;;17.93;92.12;99680.00;5002425;28;20102;-61
2022/05/18 07:44:33;;;;;;;6.75;5.57;;;;;;;17.97;91.37;99689.38;5002460;28;20084;-61
2022/05/18 07:46:59;;;;;;;6.07;5.45;;;;;;;18.00;92.01;99691.03;5002725;28;20048;-62
2022/05/18 07:49:24;;;;;;;6.95;5.50;;;;;;;17.90;92.46;99690.50;5003352;28;20347;-61
2022/05/18 07:51:50;;;;;;;9.35;6.40;;;;;;;17.89;92.57;99690.53;5000913;28;20178;-61
2022/05/18 07:54:15;;;;;;;8.63;6.00;;;;;;;17.88;92.68;99694.88;5003456;28;20096;-61
2022/05/18 07:56:41;;;;;;;8.57;6.25;;;;;;;17.98;91.98;99696.28;5001502;28;20101;-61
2022/05/18 07:59:08;;;;;;;11.15;7.32;;;;;;;18.02;91.12;99697.88;5000633;28;20501;-61
2022/05/18 08:01:36;;;;;;;8.32;6.22;;;;;;;18.18;89.28;99700.81;5000632;28;20026;-62
2022/05/18 08:04:02;;;;;;;8.35;5.95;;;;;;;18.29;88.18;99697.88;5002513;28;20122;-60
2022/05/18 08:06:27;;;;;;;7.70;6.03;;;;;;;18.36;86.51;99704.56;5004498;28;20552;-61
2022/05/18 08:08:54;;;;;;;6.43;5.93;;;;;;;18.49;85.72;99711.91;5001960;28;20034;-61
2022/05/18 08:16:48;;;;;;;10.30;6.28;;;;;;;18.47;84.33;99712.81;5000909;28;20065;-60
2022/05/18 08:19:15;;;;;;;7.70;6.63;;;;;;;18.57;85.45;99704.72;4999739;28;20029;-62
2022/05/18 08:21:41;;;;;;;8.55;6.78;;;;;;;18.59;85.15;99705.50;4998074;28;20046;-61
2022/05/18 08:24:08;;;;;;;7.55;6.75;;;;;;;18.52;85.32;99713.53;4999145;28;20653;-61
2022/05/18 08:26:34;;;;;;;11.88;6.97;;;;;;;18.53;84.92;99707.47;4999638;28;20030;-59
2022/05/18 08:29:00;;;;;;;10.73;6.85;;;;;;;18.55;83.89;99716.91;5001718;28;20033;-60
2022/05/18 08:31:26;;;;;;;11.20;6.93;;;;;;;18.57;85.79;99717.72;4999430;28;20092;-61
2022/05/18 08:33:53;;;;;;;9.48;6.45;;;;;;;18.75;84.54;99720.56;5002205;28;20030;-60
2022/05/18 08:36:19;;;;;;;9.48;7.15;;;;;;;18.81;82.25;99729.00;5002956;28;20080;-61
2022/05/18 08:38:45;;;;;;;7.53;6.50;;;;;;;19.03;81.33;99721.28;4999146;28;20030;-59
2022/05/18 08:41:18;;;;;;;8.95;6.50;;;;;;;19.03;77.89;99731.69;5001686;28;20037;-60
2022/05/18 08:43:47;;;;;;;9.52;6.05;;;;;;;19.07;76.30;99718.53;4999504;28;20093;-60
2022/05/18 08:46:34;;;;;;;7.38;6.25;;;;;;;18.99;74.23;99725.75;5000496;28;20052;-60
2022/05/18 08:49:09;;;;;;;7.15;6.50;;;;;;;19.03;76.90;99724.75;5000184;28;20064;-60
2022/05/18 08:52:14;;;;;;;7.10;6.15;;;;;;;19.15;76.02;99728.66;5002755;28;20045;-60
2022/05/18 08:54:46;;;;;;;6.85;6.13;;;;;;;19.29;75.05;99731.59;5001292;28;20397;-60
2022/05/18 08:57:20;;;;;;;6.55;5.95;;;;;;;19.14;74.86;99726.94;4999942;28;20038;-59
2022/05/18 08:59:48;;;;;;;7.63;6.38;;;;;;;19.21;71.83;99722.38;5000046;28;20184;-56
2022/05/18 09:02:21;;;;;;;11.43;6.75;;;;;;;18.94;70.93;99725.06;5001186;28;20468;-53
2022/05/18 09:04:58;;;;;;;7.20;5.47;;;;;;;19.22;68.98;99722.34;5001502;28;20046;-55
2022/05/18 09:07:31;;;;;;;7.57;6.20;;;;;;;19.09;65.68;99729.72;5000568;28;20264;-60
2022/05/18 09:10:14;;;;;;;9.15;6.13;;;;;;;19.02;64.37;99728.22;5001962;28;20363;-61
2022/05/18 09:12:52;;;;;;;8.48;5.95;;;;;;;19.25;64.93;99731.75;4999428;28;20037;-59
2022/05/18 09:15:23;;;;;;;6.57;5.47;;;;;;;19.28;62.43;99723.84;4998448;28;20037;-59
2022/05/18 09:18:01;;;;;;;6.38;5.30;;;;;;;19.31;59.33;99731.56;4990178;28;20112;-59
2022/05/18 09:21:14;;;;;;;7.80;4.57;;;;;;;19.37;58.57;99729.56;4999718;28;20042;-58
2022/05/18 09:23:55;;;;;;;7.18;4.85;;;;;;;19.43;58.30;99728.53;4939710;28;20059;-58
2022/05/18 09:26:34;;;;;;;5.50;4.63;;;;;;;19.30;58.51;99728.09;4938033;28;20098;-58
2022/05/18 09:29:30;;;;;;;5.95;5.40;;;;;;;19.37;58.41;99716.56;4939495;28;20042;-56
2022/05/18 09:32:21;;;;;;;6.70;4.78;;;;;;;19.65;59.00;99724.19;4940178;28;20055;-59
2022/05/18 09:34:59;;;;;;;7.05;4.60;;;;;;;19.85;55.17;99720.84;4888996;29;20076;-61
2022/05/18 09:37:45;;;;;;;6.93;4.55;;;;;;;19.91;53.86;99720.56;4887820;29;20087;-59
2022/05/18 09:40:23;;;;;;;6.90;4.15;;;;;;;20.02;56.62;99710.59;4886053;29;20051;-55
2022/05/18 09:42:55;;;;;;;5.68;4.53;;;;;;;20.06;52.91;99706.97;4887819;29;20040;-53
2022/05/18 09:45:25;;;;;;;6.32;3.72;;;;;;;19.94;48.46;99710.06;4885002;29;20106;-54
2022/05/18 09:48:00;;;;;;;4.15;3.42;;;;;;;19.91;48.54;99717.97;4888229;29;20047;-52
2022/05/18 09:50:26;;;;;;;;;;;;;;;20.02;51.45;99710.59;4887646;29;20056;-58
2022/05/18 09:52:52;;;;;;;5.55;4.13;;;;;;;19.98;51.13;99714.22;4887482;29;20074;-58
2022/05/18 09:55:22;;;;;;;5.00;3.90;;;;;;;20.13;48.98;99713.59;4887869;29;20543;-56
2022/05/18 09:58:00;;;;;;;4.22;3.25;;;;;;;19.91;47.48;99721.41;4909687;29;20609;-58
2022/05/18 10:00:29;;;;;;;4.82;3.80;;;;;;;20.05;47.47;99705.25;4923737;29;20135;-59
2022/05/18 10:08:33;;;;;;;6.65;4.00;;;;;;;19.86;47.31;99712.13;4923132;29;20125;-60
2022/05/18 10:11:04;;;;;;;4.53;3.95;;;;;;;19.91;47.18;99694.53;4936020;28;20133;-60
2022/05/18 10:13:34;;;;;;;5.95;3.15;;;;;;;19.90;45.08;99692.88;4999121;28;20053;-60
2022/05/18 10:16:04;;;;;;;5.72;3.63;;;;;;;20.07;44.88;99698.25;4997725;28;20066;-60
2022/05/18 10:18:42;;;;;;;4.60;3.00;;;;;;;20.20;45.38;99696.81;4998255;28;20096;-60
2022/05/18 10:21:16;;;;;;;4.57;3.15;;;;;;;20.33;45.66;99694.59;5001018;28;20045;-60
2022/05/18 10:23:55;;;;;;;5.32;4.10;;;;;;;20.20;46.13;99696.81;4999866;28;20037;-61
2022/05/18 10:26:38;;;;;;;5.43;3.72;;;;;;;20.34;45.89;99696.28;4998227;28;20137;-59
2022/05/18 10:29:21;;;;;;;6.95;3.70;;;;;;;20.21;45.99;99685.50;4999994;28;20527;-59
2022/05/18 10:32:03;;;;;;;7.22;3.75;;;;;;;20.49;45.76;99682.63;4999893;28;20956;-60
2022/05/18 10:34:32;;;;;;;3.45;3.15;;;;;;;20.65;45.06;99688.03;4997384;28;20038;-60
2022/05/18 10:37:03;;;;;;;3.83;3.20;;;;;;;20.78;45.08;99681.38;4997405;28;20864;-60
2022/05/18 10:39:47;;;;;;;4.63;3.45;;;;;;;20.79;43.81;99681.28;4999499;28;20038;-60
2022/05/18 10:42:19;;;;;;;4.75;3.40;;;;;;;20.48;43.76;99684.38;4997595;28;20037;-60
2022/05/18 10:44:45;;;;;;;4.15;3.40;;;;;;;20.45;44.50;99679.28;4998242;28;20566;-60
2022/05/18 10:47:22;;;;;;;4.47;3.45;;;;;;;20.43;43.77;99688.94;4997457;28;20155;-59
2022/05/18 10:49:49;;;;;;;5.80;3.25;;;;;;;20.41;42.73;99682.09;4998653;28;20489;-60
2022/05/18 10:52:28;;;;;;;7.65;3.65;;;;;;;20.58;43.27;99689.22;4998187;28;20488;-60
2022/05/18 10:54:54;;;;;;;6.07;2.92;;;;;;;20.63;42.97;99680.25;4997346;28;20505;-59
2022/05/18 10:57:27;;;;;;;7.57;4.53;;;;;;;20.80;43.05;99688.19;4998910;28;20100;-61
2022/05/18 11:00:05;;;;;;;4.28;3.10;;;;;;;20.77;42.87;99684.88;4998387;28;20033;-61
2022/05/18 11:02:45;;;;;;;3.22;2.90;;;;;;;20.58;42.56;99681.41;4996209;28;20037;-52
2022/05/18 11:05:20;;;;;;;7.10;3.03;;;;;;;20.31;42.84;99683.41;4996177;28;20038;-51
2022/05/18 11:07:46;;;;;;;5.00;3.05;;;;;;;20.59;42.94;99678.69;5000230;28;20054;-50
2022/05/18 11:10:12;;;;;;;6.55;3.53;;;;;;;20.62;42.60;99667.31;4999260;28;20432;-54
2022/05/18 11:13:15;;;;;;;4.50;2.85;;;;;;;20.70;41.80;99668.69;4999344;28;20037;-51
2022/05/18 11:15:57;;;;;;;4.72;3.03;;;;;;;20.89;42.68;99669.53;4997940;28;20511;-55
2022/05/18 11:18:55;;;;;;;3.35;2.30;;;;;;;21.23;40.83;99674.13;5001350;28;20121;-56
2022/05/18 11:21:47;;;;;;;4.45;2.50;;;;;;;21.22;40.98;99671.56;4997417;28;20073;-59
2022/05/18 11:24:14;;;;;;;5.80;2.70;;;;;;;21.23;40.73;99676.72;4995281;28;20037;-60
2022/05/18 11:26:51;;;;;;;4.13;2.72;;;;;;;21.08;40.43;99668.72;4996064;28;20127;-58
2022/05/18 11:29:41;;;;;;;4.80;2.50;;;;;;;21.26;41.14;99658.31;4997710;28;20077;-61
2022/05/18 11:32:22;;;;;;;4.50;2.67;;;;;;;21.13;39.35;99662.41;4997745;28;20489;-56
2022/05/18 11:34:57;;;;;;;4.18;2.40;;;;;;;20.98;39.60;99656.09;5000700;28;20120;-57
2022/05/18 11:37:40;;;;;;;2.63;2.42;;;;;;;21.06;39.36;99657.50;4999070;28;20490;-58
2022/05/18 11:40:23;;;;;;;3.38;2.65;;;;;;;21.03;38.96;99658.50;4994846;28;20481;-60
2022/05/18 11:43:32;;;;;;;2.90;2.42;;;;;;;21.04;39.42;99664.56;4995887;28;20077;-58
2022/05/18 11:46:11;;;;;;;4.65;2.97;;;;;;;20.84;39.86;99648.03;4919358;29;20498;-60
2022/05/18 11:48:51;;;;;;;6.20;2.70;;;;;;;21.19;40.03;99651.72;4920963;29;20054;-59
2022/05/18 11:51:47;;;;;;;4.70;3.08;;;;;;;21.03;39.29;99640.25;4920213;29;20108;-58
2022/05/18 11:54:20;;;;;;;;;;;;;;;21.07;39.62;99648.78;4920928;29;20043;-59